Time;durP1;ratioP1;P1;durP2;ratioP2;P2;SDS_P1;SDS_P2;PMS_P1;PMS_P2;Temp;Humidity;BMP_temperature;BMP_pressure;BME280_temperature;BME280_humidity;BME280_pressure;Samples;Min_cycle;Max_cycle;Signal;HPM_P1;HPM_P2
2021/12/14 00:01:36;;;;;;;;;;;;;;;0.78;76.28;100593.31;4975178;28;20016;-66
2021/12/14 00:04:09;;;;;;;;;;;;;;;0.66;76.19;100597.69;4975223;28;20390;-66
2021/12/14 00:06:42;;;;;;;;;;;;;;;0.67;76.12;100595.25;4975175;28;19929;-67
2021/12/14 00:09:23;;;;;;;;;;;;;;;0.56;76.31;100595.47;4975451;28;19957;-65
2021/12/14 00:12:08;;;;;;;;;;;;;;;0.53;76.31;100590.28;4975088;28;19922;-66
2021/12/14 00:17:23;;;;;;;;;;;;;;;0.44;76.25;100599.84;4975033;28;19972;-65
2021/12/14 00:19:57;;;;;;;;;;;;;;;0.40;75.86;100592.94;4976772;28;20391;-65
2021/12/14 00:22:37;;;;;;;;;;;;;;;0.34;76.33;100592.56;4979586;28;20284;-65
2021/12/14 00:25:08;;;;;;;;;;;;;;;0.29;76.27;100599.03;4978957;28;19922;-67
2021/12/14 00:27:41;;;;;;;;;;;;;;;0.25;76.18;100599.63;4979335;28;19946;-65
2021/12/14 00:30:15;;;;;;;;;;;;;;;0.21;76.34;100596.09;4961944;28;19922;-66
2021/12/14 00:32:44;;;;;;;;;;;;;;;0.23;76.36;100598.69;4978387;28;19929;-66
2021/12/14 00:35:16;;;;;;;;;;;;;;;0.27;76.20;100598.06;4959486;28;19922;-65
2021/12/14 00:37:51;;;;;;;;;;;;;;;0.32;76.62;100610.09;4958314;29;19950;-67
2021/12/14 00:40:25;;;;;;;;;;;;;;;0.24;76.03;100597.91;4959369;29;20292;-65
2021/12/14 00:42:58;;;;;;;;;;;;;;;0.23;76.63;100598.69;4959605;28;19946;-66
2021/12/14 00:45:31;;;;;;;;;;;;;;;0.17;76.04;100601.69;4959613;28;20300;-67
2021/12/14 00:48:04;;;;;;;;;;;;;;;0.15;76.16;100609.94;4959286;28;19926;-65
2021/12/14 00:50:33;;;;;;;;;;;;;;;0.20;76.21;100613.56;4959282;28;19989;-65
2021/12/14 00:53:02;;;;;;;;;;;;;;;0.15;76.35;100620.84;4959121;28;19994;-65
2021/12/14 00:55:35;;;;;;;;;;;;;;;0.18;76.67;100616.00;4959091;29;19957;-65
2021/12/14 00:58:07;;;;;;;;;;;;;;;-0.01;76.33;100616.63;4959098;28;19929;-65
2021/12/14 01:00:40;;;;;;;;;;;;;;;-0.03;76.42;100604.78;4959160;28;19958;-67
2021/12/14 01:03:11;;;;;;;;;;;;;;;-0.02;76.59;100607.34;4957760;29;19923;-66
2021/12/14 01:05:41;;;;;;;;;;;;;;;-0.08;76.61;100602.00;4959263;28;20415;-65
2021/12/14 01:08:15;;;;;;;;;;;;;;;-0.11;76.88;100596.81;4958961;28;19923;-65
2021/12/14 01:10:51;;;;;;;;;;;;;;;0.04;76.67;100603.47;4958884;28;19929;-66
2021/12/14 01:13:24;;;;;;;;;;;;;;;0.03;76.97;100605.09;4959106;29;20025;-66
2021/12/14 01:16:13;;;;;;;;;;;;;;;0.06;76.85;100590.22;4958814;28;19965;-65
2021/12/14 01:19:12;;;;;;;;;;;;;;;-0.11;76.68;100591.81;4958728;28;19926;-65
2021/12/14 01:22:11;;;;;;;;;;;;;;;-0.13;76.50;100593.38;4958733;29;19950;-65
2021/12/14 01:27:30;;;;;;;;;;;;;;;-0.27;77.01;100583.34;4938153;29;20035;-66
2021/12/14 01:30:06;;;;;;;;;;;;;;;-0.29;77.27;100590.75;4936925;29;19923;-65
2021/12/14 01:32:42;;;;;;;;;;;;;;;-0.23;77.43;100591.13;4921663;29;19927;-66
2021/12/14 01:35:15;;;;;;;;;;;;;;;-0.22;77.16;100582.81;4918235;29;20382;-65
2021/12/14 01:37:59;;;;;;;;;;;;;;;-0.17;77.39;100585.59;4918281;29;20304;-67
2021/12/14 01:43:41;;;;;;;;;;;;;;;-0.16;76.95;100587.28;4915193;29;20416;-66
2021/12/14 01:46:35;;;;;;;;;;;;;;;-0.28;77.06;100587.47;4917786;29;19974;-65
2021/12/14 01:49:20;;;;;;;;;;;;;;;-0.42;76.87;100588.34;4928896;29;19923;-65
2021/12/14 01:52:05;;;;;;;;;;;;;;;-0.42;77.26;100585.84;4939018;28;19923;-66
2021/12/14 01:54:39;;;;;;;;;;;;;;;-0.28;77.17;100587.47;4938848;29;20407;-65
2021/12/14 01:57:13;;;;;;;;;;;;;;;-0.19;77.36;100587.13;4969761;28;19923;-66
2021/12/14 01:59:46;;;;;;;;;;;;;;;-0.28;77.28;100582.47;4939056;29;19974;-65
2021/12/14 02:02:24;;;;;;;;;;;;;;;-0.32;77.20;100583.06;4938801;29;19977;-66
2021/12/14 02:04:54;;;;;;;;;;;;;;;-0.31;76.88;100587.28;4938987;29;19993;-65
2021/12/14 02:07:27;;;;;;;;;;;;;;;-0.27;77.03;100574.19;4938749;28;20047;-65
2021/12/14 02:10:02;;;;;;;;;;;;;;;-0.31;76.79;100577.25;4938981;29;20391;-65
2021/12/14 02:12:36;;;;;;;;;;;;;;;-0.34;76.91;100578.75;4937457;29;19966;-67
2021/12/14 02:15:10;;;;;;;;;;;;;;;-0.29;76.75;100580.72;4938489;29;19923;-66
2021/12/14 02:17:45;;;;;;;;;;;;;;;-0.47;76.53;100589.72;4969675;28;20321;-65
2021/12/14 02:20:21;;;;;;;;;;;;;;;-0.47;76.89;100591.34;4938704;29;20416;-66
2021/12/14 02:22:56;;;;;;;;;;;;;;;-0.48;76.94;100593.00;4938461;29;19950;-67
2021/12/14 02:25:25;;;;;;;;;;;;;;;-0.57;76.32;100592.47;4969170;28;20369;-66
2021/12/14 02:28:00;;;;;;;;;;;;;;;-0.58;76.96;100594.91;4938274;29;20093;-65
2021/12/14 02:30:33;;;;;;;;;;;;;;;-0.56;77.29;100594.22;4937488;29;20325;-65
2021/12/14 02:33:11;;;;;;;;;;;;;;;-0.47;77.11;100596.38;4941767;28;19942;-65
2021/12/14 02:35:41;;;;;;;;;;;;;;;-0.51;76.94;100595.34;4976537;28;20013;-66
2021/12/14 02:38:17;;;;;;;;;;;;;;;-0.54;76.78;100596.78;4976880;28;19922;-66
2021/12/14 02:43:39;;;;;;;;;;;;;;;-0.56;76.89;100590.84;4975889;28;20371;-66
2021/12/14 02:46:20;;;;;;;;;;;;;;;-0.57;76.78;100594.97;4976705;28;19922;-65
2021/12/14 02:48:53;;;;;;;;;;;;;;;-0.51;76.61;100582.81;4976389;28;19922;-66
2021/12/14 02:51:28;;;;;;;;;;;;;;;-0.45;76.99;100587.28;4976619;28;20299;-66
2021/12/14 02:54:04;;;;;;;;;;;;;;;-0.44;76.78;100589.91;4976570;28;20118;-65
2021/12/14 02:56:37;;;;;;;;;;;;;;;-0.48;76.48;100593.00;4976174;28;19922;-65
2021/12/14 02:59:10;;;;;;;;;;;;;;;-0.49;76.50;100590.41;4976179;28;19930;-65
2021/12/14 03:01:44;;;;;;;;;;;;;;;-0.53;76.49;100586.88;4976082;28;19929;-67
2021/12/14 03:04:19;;;;;;;;;;;;;;;-0.52;76.67;100585.22;4976084;28;19929;-65
2021/12/14 03:06:53;;;;;;;;;;;;;;;-0.52;76.76;100598.63;4976283;28;20017;-65
2021/12/14 03:12:12;;;;;;;;;;;;;;;-0.64;76.91;100592.91;4976340;28;20012;-66
2021/12/14 03:14:47;;;;;;;;;;;;;;;-0.49;77.21;100596.28;4975960;28;19969;-66
2021/12/14 03:17:19;;;;;;;;;;;;;;;-0.55;77.15;100595.91;4976192;28;19932;-65
2021/12/14 03:19:56;;;;;;;;;;;;;;;-0.54;76.93;100592.66;4976233;28;20036;-67
2021/12/14 03:22:31;;;;;;;;;;;;;;;-0.64;77.01;100592.03;4975772;28;19925;-65
2021/12/14 03:25:06;;;;;;;;;;;;;;;-0.68;77.21;100594.38;4975755;28;20016;-65
2021/12/14 03:27:39;;;;;;;;;;;;;;;-0.63;76.84;100597.16;4958474;28;19951;-65
2021/12/14 03:30:18;;;;;;;;;;;;;;;-0.71;77.02;100603.34;4975954;28;20021;-66
2021/12/14 03:32:50;;;;;;;;;;;;;;;-0.92;77.32;100597.06;4975646;28;19929;-66
2021/12/14 03:35:22;;;;;;;;;;;;;;;-0.85;78.15;100599.16;4975446;28;19922;-66
2021/12/14 03:38:08;;;;;;;;;;;;;;;-0.75;77.75;100598.94;4975504;28;19922;-65
2021/12/14 03:40:41;;;;;;;;;;;;;;;-0.67;77.73;100601.09;4975446;28;19922;-66
2021/12/14 03:43:15;;;;;;;;;;;;;;;-0.61;77.49;100593.06;4975449;28;19922;-67
2021/12/14 03:45:44;;;;;;;;;;;;;;;-0.62;77.50;100598.84;4958248;28;19929;-66
2021/12/14 03:48:17;;;;;;;;;;;;;;;-0.68;77.55;100604.41;4958127;28;19922;-66
2021/12/14 03:50:47;;;;;;;;;;;;;;;-0.86;77.45;100597.41;4958163;28;19922;-66
2021/12/14 03:53:21;;;;;;;;;;;;;;;-0.81;77.75;100601.06;4957833;28;19977;-66
2021/12/14 03:55:54;;;;;;;;;;;;;;;-0.82;77.89;100599.34;4975671;28;20020;-65
2021/12/14 03:58:30;;;;;;;;;;;;;;;-0.88;77.53;100604.84;4958706;28;19954;-66
2021/12/14 04:01:05;;;;;;;;;;;;;;;-0.89;77.65;100602.28;4975190;28;19922;-66
2021/12/14 04:03:45;;;;;;;;;;;;;;;-1.05;77.68;100604.63;4958033;28;19922;-65
2021/12/14 04:06:23;;;;;;;;;;;;;;;-1.04;77.80;100591.34;4975185;28;19929;-67
2021/12/14 04:08:56;;;;;;;;;;;;;;;-0.99;78.09;100595.84;4975462;28;19922;-66
2021/12/14 04:11:26;;;;;;;;;;;;;;;-1.05;77.83;100592.97;4957910;28;19922;-65
2021/12/14 04:13:58;;;;;;;;;;;;;;;-1.05;78.02;100597.09;4975155;28;20034;-65
2021/12/14 04:16:41;;;;;;;;;;;;;;;-1.02;77.74;100598.16;4975120;28;19922;-65
2021/12/14 04:19:12;;;;;;;;;;;;;;;-1.03;77.95;100603.94;4975038;28;20004;-65
2021/12/14 04:21:45;;;;;;;;;;;;;;;-0.97;78.13;100605.97;4975001;28;19922;-65
2021/12/14 04:24:21;;;;;;;;;;;;;;;-1.06;78.01;100592.88;4958406;28;20344;-66
2021/12/14 04:26:57;;;;;;;;;;;;;;;-1.08;78.09;100601.97;4958134;28;20324;-65
2021/12/14 04:29:29;;;;;;;;;;;;;;;-1.11;77.63;100594.25;4975186;28;20005;-65
2021/12/14 04:32:09;;;;;;;;;;;;;;;-1.16;77.80;100593.13;4975245;28;20280;-66
2021/12/14 04:34:42;;;;;;;;;;;;;;;-1.16;77.55;100596.47;4954202;28;19989;-65
2021/12/14 04:37:16;;;;;;;;;;;;;;;-1.12;77.80;100595.00;4955967;28;19929;-65
2021/12/14 04:39:52;;;;;;;;;;;;;;;-1.12;77.59;100597.53;4955678;28;19966;-66
2021/12/14 04:53:32;;;;;;;;;;;;;;;-1.08;77.97;100586.94;4954300;29;19922;-66
2021/12/14 04:56:05;;;;;;;;;;;;;;;-0.96;77.91;100590.16;4955479;28;19926;-66
2021/12/14 04:58:40;;;;;;;;;;;;;;;-0.96;78.12;100595.19;4955483;28;19923;-65
2021/12/14 05:01:10;;;;;;;;;;;;;;;-0.95;77.86;100597.75;4954264;29;21818;-66
2021/12/14 05:03:44;;;;;;;;;;;;;;;-0.89;78.04;100608.13;4954203;29;19922;-65
2021/12/14 05:06:20;;;;;;;;;;;;;;;-0.94;77.99;100598.63;4957499;28;20341;-65
2021/12/14 05:11:35;;;;;;;;;;;;;;;-0.82;78.50;100601.84;4958886;28;20484;-64
2021/12/14 05:14:12;;;;;;;;;;;;;;;-0.69;77.89;100604.28;4957669;29;19929;-65
2021/12/14 05:16:53;;;;;;;;;;;;;;;-0.70;78.33;100600.06;4957962;29;19929;-65
2021/12/14 05:19:51;;;;;;;;;;;;;;;-0.72;78.01;100606.63;4976056;28;19929;-67
2021/12/14 05:22:23;;;;;;;;;;;;;;;-0.65;77.88;100612.88;4976116;28;20001;-64
2021/12/14 05:24:56;;;;;;;;;;;;;;;-0.67;77.87;100606.09;4975915;28;19922;-66
2021/12/14 05:27:32;;;;;;;;;;;;;;;-0.64;77.70;100609.56;4975815;28;19987;-65
2021/12/14 05:30:08;;;;;;;;;;;;;;;-0.61;77.81;100599.72;4976300;28;20312;-65
2021/12/14 05:32:50;;;;;;;;;;;;;;;-0.66;77.74;100606.97;4975811;28;19953;-65
2021/12/14 05:35:22;;;;;;;;;;;;;;;-0.62;77.67;100605.53;4975188;28;19922;-65
2021/12/14 05:37:57;;;;;;;;;;;;;;;-0.61;77.82;100605.63;4975718;28;20020;-65
2021/12/14 05:40:56;;;;;;;;;;;;;;;-0.53;77.81;100606.06;4975789;28;20386;-65
2021/12/14 05:43:40;;;;;;;;;;;;;;;-0.43;77.76;100601.63;4937512;29;19923;-67
2021/12/14 05:46:28;;;;;;;;;;;;;;;-0.54;77.66;100600.19;4921728;29;19930;-64
2021/12/14 05:49:18;;;;;;;;;;;;;;;-0.50;77.95;100608.72;4936817;29;19974;-66
2021/12/14 05:51:50;;;;;;;;;;;;;;;-0.51;77.95;100600.34;4937225;29;19923;-66
2021/12/14 05:54:21;;;;;;;;;;;;;;;-0.55;77.80;100595.09;4937209;29;20281;-64
2021/12/14 05:56:55;;;;;;;;;;;;;;;-0.58;77.80;100595.78;4936938;29;20002;-65
2021/12/14 05:59:28;;;;;;;;;;;;;;;-0.54;77.98;100590.16;4937137;29;20053;-66
2021/12/14 06:02:04;;;;;;;;;;;;;;;-0.44;77.84;100589.91;4957034;28;19933;-65
2021/12/14 06:04:36;;;;;;;;;;;;;;;-0.44;77.68;100589.91;4957046;29;19945;-66
2021/12/14 06:07:08;;;;;;;;;;;;;;;-0.49;77.39;100591.28;4957892;28;19974;-67
2021/12/14 06:09:45;;;;;;;;;;;;;;;-0.54;77.35;100587.63;4957789;28;19949;-65
2021/12/14 06:12:31;;;;;;;;;;;;;;;-0.58;77.22;100605.78;4958634;28;19930;-65
2021/12/14 06:15:04;;;;;;;;;;;;;;;-0.70;77.13;100605.09;4958051;28;19954;-65
2021/12/14 06:17:38;;;;;;;;;;;;;;;-0.67;77.25;100595.22;4957564;28;19922;-66
2021/12/14 06:20:20;;;;;;;;;;;;;;;-0.72;77.16;100601.63;4957581;28;19922;-65
2021/12/14 06:22:54;;;;;;;;;;;;;;;-0.75;77.19;100609.81;4957521;28;20017;-66
2021/12/14 06:25:37;;;;;;;;;;;;;;;-0.85;77.25;100600.03;4957896;28;19981;-66
2021/12/14 06:28:09;;;;;;;;;;;;;;;-0.87;77.26;100600.72;4956652;29;19923;-66
2021/12/14 06:30:41;;;;;;;;;;;;;;;-0.95;77.08;100601.91;4957736;28;19930;-66
2021/12/14 06:33:14;;;;;;;;;;;;;;;-0.95;77.50;100599.38;4957350;28;19922;-67
2021/12/14 06:35:49;;;;;;;;;;;;;;;-0.95;77.25;100596.88;4957648;28;20261;-66
2021/12/14 06:38:28;;;;;;;;;;;;;;;-0.95;77.10;100596.88;4956130;29;20309;-65
2021/12/14 06:41:04;;;;;;;;;;;;;;;-0.99;77.35;100607.50;4957215;28;19969;-65
2021/12/14 06:43:35;;;;;;;;;;;;;;;-0.90;77.66;100606.41;4957439;28;19922;-66
2021/12/14 06:46:07;;;;;;;;;;;;;;;-0.89;77.48;100605.63;4957156;29;19953;-66
2021/12/14 06:48:42;;;;;;;;;;;;;;;-0.97;77.55;100609.31;4957135;28;19928;-65
2021/12/14 06:51:13;;;;;;;;;;;;;;;-1.02;77.44;100604.81;4957094;28;19949;-65
2021/12/14 06:54:09;;;;;;;;;;;;;;;-0.91;77.59;100598.81;4955015;29;19923;-65
2021/12/14 06:56:50;;;;;;;;;;;;;;;-0.89;77.46;100607.28;4957087;28;19926;-65
2021/12/14 06:59:47;;;;;;;;;;;;;;;-0.84;77.78;100600.91;4956916;28;19969;-66
2021/12/14 07:02:27;;;;;;;;;;;;;;;-0.55;77.56;100608.44;4956766;28;20440;-65
2021/12/14 07:05:17;;;;;;;;;;;;;;;-0.13;77.29;100603.41;4956771;28;19926;-65
2021/12/14 07:07:54;;;;;;;;;;;;;;;0.38;77.07;100599.50;4956742;28;19929;-65
2021/12/14 07:10:26;;;;;;;;;;;;;;;0.58;76.50;100593.91;4956655;28;20332;-65
2021/12/14 07:13:00;;;;;;;;;;;;;;;0.83;76.81;100596.06;4956627;28;19966;-64
2021/12/14 07:15:36;;;;;;;;;;;;;;;1.05;76.21;100589.72;4956554;28;19926;-65
2021/12/14 07:18:08;;;;;;;;;;;;;;;0.97;75.48;100598.50;4956561;28;19922;-66
2021/12/14 07:20:44;;;;;;;;;;;;;;;1.18;75.42;100597.09;4956489;28;20005;-65
2021/12/14 07:23:18;;;;;;;;;;;;;;;1.25;74.84;100599.13;4956295;28;19922;-66
2021/12/14 07:25:53;;;;;;;;;;;;;;;1.44;74.21;100600.06;4956775;28;19923;-66
2021/12/14 07:28:30;;;;;;;;;;;;;;;1.58;74.32;100614.19;4955892;28;19929;-66
2021/12/14 07:31:03;;;;;;;;;;;;;;;1.59;73.94;100601.69;4956372;28;19973;-67
2021/12/14 07:33:33;;;;;;;;;;;;;;;1.61;73.81;100611.84;4958354;28;20285;-67
2021/12/14 07:36:05;;;;;;;;;;;;;;;1.61;73.15;100609.31;4975481;28;19965;-66
2021/12/14 07:38:42;;;;;;;;;;;;;;;1.61;73.47;100604.28;4975542;28;19922;-66
2021/12/14 07:41:17;;;;;;;;;;;;;;;1.66;73.14;100607.88;4975697;28;20451;-66
2021/12/14 07:43:51;;;;;;;;;;;;;;;1.71;73.68;100606.44;4975367;28;20021;-66
2021/12/14 07:46:32;;;;;;;;;;;;;;;1.77;73.53;100601.72;4975205;28;19922;-65
2021/12/14 07:49:04;;;;;;;;;;;;;;;1.78;73.11;100605.97;4975246;28;20372;-66
2021/12/14 07:51:40;;;;;;;;;;;;;;;1.69;73.20;100608.91;4975633;28;19922;-65
2021/12/14 07:54:12;;;;;;;;;;;;;;;1.59;73.12;100605.84;4975526;28;20298;-65
2021/12/14 07:56:46;;;;;;;;;;;;;;;1.68;73.79;100603.81;4975314;28;19929;-67
2021/12/14 07:59:19;;;;;;;;;;;;;;;1.74;72.80;100607.47;4975578;28;19928;-66
2021/12/14 08:01:53;;;;;;;;;;;;;;;2.03;73.50;100603.84;4975463;28;19929;-66
2021/12/14 08:04:32;;;;;;;;;;;;;;;2.18;72.81;100602.06;4975264;28;20017;-66
2021/12/14 08:07:09;;;;;;;;;;;;;;;2.32;72.75;100598.53;4975201;28;20475;-66
2021/12/14 08:09:48;;;;;;;;;;;;;;;2.36;73.00;100597.00;4975972;28;19930;-65
2021/12/14 08:12:31;;;;;;;;;;;;;;;2.35;72.60;100602.84;4975476;28;19926;-66
2021/12/14 08:15:03;;;;;;;;;;;;;;;2.45;73.37;100597.44;4974791;28;19945;-66
2021/12/14 08:17:31;;;;;;;;;;;;;;;2.59;72.41;100604.00;4975252;28;19944;-66
2021/12/14 08:20:00;;;;;;;;;;;;;;;2.82;72.54;100599.97;4975166;28;20017;-65
2021/12/14 08:22:51;;;;;;;;;;;;;;;2.79;71.87;100604.88;4975085;28;19926;-66
2021/12/14 08:25:23;;;;;;;;;;;;;;;2.89;72.02;100596.91;4975193;28;19922;-65
2021/12/14 08:28:00;;;;;;;;;;;;;;;2.93;72.55;100596.28;4974848;28;20371;-68
2021/12/14 08:30:31;;;;;;;;;;;;;;;3.04;71.90;100587.53;4974314;28;19980;-67
2021/12/14 08:33:00;;;;;;;;;;;;;;;3.10;72.17;100588.63;4975211;28;20005;-67
2021/12/14 08:35:29;;;;;;;;;;;;;;;3.27;72.34;100592.75;4974546;28;19960;-67
2021/12/14 08:38:03;;;;;;;;;;;;;;;3.44;71.76;100590.94;4974530;28;19922;-65
2021/12/14 08:40:35;;;;;;;;;;;;;;;3.57;71.32;100598.25;4975740;28;20386;-66
2021/12/14 08:43:10;;;;;;;;;;;;;;;3.60;70.76;100603.38;4961202;28;19922;-67
2021/12/14 08:45:42;;;;;;;;;;;;;;;3.58;71.27;100599.94;4978461;28;20008;-63
2021/12/14 08:48:14;;;;;;;;;;;;;;;3.68;70.96;100604.59;4978322;28;19922;-65
2021/12/14 08:50:46;;;;;;;;;;;;;;;3.75;70.63;100598.97;4978721;28;19922;-65
2021/12/14 08:53:17;;;;;;;;;;;;;;;3.92;70.82;100603.06;4978565;28;20443;-66
2021/12/14 08:55:49;;;;;;;;;;;;;;;4.04;70.72;100603.56;4978307;28;19933;-65
2021/12/14 08:58:18;;;;;;;;;;;;;;;3.97;70.12;100608.28;4978263;28;19921;-65
2021/12/14 09:00:48;;;;;;;;;;;;;;;3.86;69.83;100605.31;4978435;28;19961;-67
2021/12/14 09:03:24;;;;;;;;;;;;;;;3.87;69.88;100608.72;4978067;28;19922;-67
2021/12/14 09:05:53;;;;;;;;;;;;;;;3.85;69.63;100606.13;4978118;28;19922;-66
2021/12/14 09:08:23;;;;;;;;;;;;;;;3.87;69.99;100604.53;4978049;28;19977;-65
2021/12/14 09:10:54;;;;;;;;;;;;;;;4.15;70.13;100600.59;4978388;28;20383;-67
2021/12/14 09:13:22;;;;;;;;;;;;;;;4.27;70.09;100604.44;4977930;28;20350;-67
2021/12/14 09:15:56;;;;;;;;;;;;;;;4.44;70.03;100605.13;4977795;28;19932;-66
2021/12/14 09:18:26;;;;;;;;;;;;;;;4.55;69.80;100588.69;4978112;28;20021;-65
2021/12/14 09:21:03;;;;;;;;;;;;;;;4.65;69.14;100588.25;4977914;28;19929;-66
2021/12/14 09:23:34;;;;;;;;;;;;;;;4.87;69.42;100588.19;4977812;28;20386;-65
2021/12/14 09:26:06;;;;;;;;;;;;;;;5.07;69.06;100577.13;4978160;28;20028;-65
2021/12/14 09:28:36;;;;;;;;;;;;;;;5.18;68.64;100588.47;4977699;28;20016;-66
2021/12/14 09:31:08;;;;;;;;;;;;;;;5.54;68.71;100585.53;4977593;28;19929;-67
2021/12/14 09:33:39;;;;;;;;;;;;;;;5.66;68.45;100576.66;4977484;28;19957;-66
2021/12/14 09:36:13;;;;;;;;;;;;;;;5.89;68.93;100564.78;4978100;28;19922;-67
2021/12/14 09:38:52;;;;;;;;;;;;;;;5.83;67.83;100569.63;4977685;28;19922;-66
2021/12/14 09:41:24;;;;;;;;;;;;;;;5.78;67.66;100566.06;4977526;28;20431;-65
2021/12/14 09:43:54;;;;;;;;;;;;;;;5.74;67.64;100564.22;4977404;28;19925;-66
2021/12/14 09:46:23;;;;;;;;;;;;;;;5.88;67.60;100568.09;4977520;28;19932;-67
2021/12/14 09:48:57;;;;;;;;;;;;;;;6.08;67.25;100567.06;4977701;28;20009;-66
2021/12/14 09:51:27;;;;;;;;;;;;;;;6.21;67.53;100564.13;4977001;28;19922;-66
2021/12/14 09:54:02;;;;;;;;;;;;;;;6.36;66.79;100553.59;4977706;28;19922;-65
2021/12/14 09:56:33;;;;;;;;;;;;;;;6.62;67.17;100548.44;4977338;28;19933;-67
2021/12/14 09:59:10;;;;;;;;;;;;;;;6.68;66.89;100558.78;4977334;28;20012;-68
2021/12/14 10:01:42;;;;;;;;;;;;;;;6.92;66.70;100567.88;4977478;28;20397;-67
2021/12/14 10:04:16;;;;;;;;;;;;;;;7.09;66.38;100561.59;4977436;28;19925;-66
2021/12/14 10:06:50;;;;;;;;;;;;;;;7.13;65.28;100563.41;4977095;28;19922;-67
2021/12/14 10:09:22;;;;;;;;;;;;;;;7.04;65.71;100553.00;4959826;28;19928;-67
2021/12/14 10:12:07;;;;;;;;;;;;;;;7.04;65.35;100558.06;4977167;28;19930;-66
2021/12/14 10:14:38;;;;;;;;;;;;;;;7.23;65.59;100555.22;4977066;28;20387;-66
2021/12/14 10:17:08;;;;;;;;;;;;;;;7.09;65.50;100551.44;4977211;28;20009;-66
2021/12/14 10:19:38;;;;;;;;;;;;;;;7.20;65.29;100560.19;4976874;28;19969;-66
2021/12/14 10:22:08;;;;;;;;;;;;;;;7.48;64.93;100557.59;4976849;28;19926;-66
2021/12/14 10:24:39;;;;;;;;;;;;;;;7.46;64.22;100554.16;4976660;28;19926;-67
2021/12/14 10:27:10;;;;;;;;;;;;;;;7.29;64.13;100561.31;4976590;28;20434;-65
2021/12/14 10:29:39;;;;;;;;;;;;;;;7.23;64.44;100550.13;4976866;28;20357;-66
2021/12/14 10:32:09;;;;;;;;;;;;;;;7.12;64.51;100554.06;4976424;28;19926;-66
2021/12/14 10:34:40;;;;;;;;;;;;;;;7.02;64.45;100549.56;4976309;28;19969;-66
2021/12/14 10:37:17;;;;;;;;;;;;;;;7.01;65.41;100548.69;4976635;28;19929;-66
2021/12/14 10:45:10;;;;;;;;;;;;;;;6.83;65.67;100554.94;4976228;28;19922;-66
2021/12/14 10:47:41;;;;;;;;;;;;;;;6.81;66.12;100551.50;4976298;28;19957;-67
2021/12/14 10:50:13;;;;;;;;;;;;;;;6.80;65.40;100554.84;4976081;28;19992;-66
2021/12/14 10:52:43;;;;;;;;;;;;;;;6.73;66.05;100549.63;4976086;28;19945;-67
2021/12/14 10:55:17;;;;;;;;;;;;;;;6.71;66.27;100543.66;4975952;28;20004;-66
2021/12/14 10:57:49;;;;;;;;;;;;;;;6.56;66.46;100539.81;4976518;28;19922;-66
2021/12/14 11:00:28;;;;;;;;;;;;;;;6.40;66.71;100541.03;4976146;28;19922;-67
2021/12/14 11:03:03;;;;;;;;;;;;;;;6.26;66.82;100542.31;4976305;28;19984;-66
2021/12/14 11:05:36;;;;;;;;;;;;;;;6.21;67.45;100538.78;4976149;28;20287;-68
2021/12/14 11:08:06;;;;;;;;;;;;;;;6.22;66.93;100542.13;4976069;28;20424;-67
2021/12/14 11:10:40;;;;;;;;;;;;;;;6.13;67.25;100544.41;4976156;28;19945;-67
2021/12/14 11:13:11;;;;;;;;;;;;;;;5.95;67.46;100537.13;4975894;28;19956;-65
2021/12/14 11:15:44;;;;;;;;;;;;;;;5.97;68.15;100543.09;4975928;28;19949;-66
2021/12/14 11:18:17;;;;;;;;;;;;;;;5.95;67.51;100539.66;4976082;28;20319;-66
2021/12/14 11:20:48;;;;;;;;;;;;;;;5.90;68.24;100531.03;4975761;28;19922;-66
2021/12/14 11:23:19;;;;;;;;;;;;;;;5.93;68.27;100534.50;4976034;28;19949;-66
2021/12/14 11:25:54;;;;;;;;;;;;;;;5.84;68.47;100540.94;4975591;28;19929;-66
2021/12/14 11:28:30;;;;;;;;;;;;;;;5.55;68.42;100536.59;4975706;28;20336;-66
2021/12/14 11:31:02;;;;;;;;;;;;;;;5.20;68.56;100523.63;4975823;28;19921;-67
2021/12/14 11:33:35;;;;;;;;;;;;;;;4.96;69.20;100527.84;4975298;28;19984;-66
2021/12/14 11:36:11;;;;;;;;;;;;;;;4.83;69.63;100525.69;4975463;28;19929;-66
2021/12/14 11:38:41;;;;;;;;;;;;;;;5.27;69.80;100515.44;4975615;28;19928;-67
2021/12/14 11:41:20;;;;;;;;;;;;;;;5.51;69.73;100519.59;4975609;28;19922;-66
2021/12/14 11:43:55;;;;;;;;;;;;;;;5.58;69.43;100517.31;4975217;28;19964;-66
2021/12/14 11:46:25;;;;;;;;;;;;;;;5.60;68.92;100514.81;4975548;28;20382;-66
2021/12/14 11:48:57;;;;;;;;;;;;;;;5.51;68.29;100522.97;4975743;28;20016;-66
2021/12/14 11:51:26;;;;;;;;;;;;;;;5.38;68.53;100529.31;4975633;28;19968;-66
2021/12/14 11:54:00;;;;;;;;;;;;;;;5.35;68.55;100523.28;4975275;28;20020;-65
2021/12/14 11:56:32;;;;;;;;;;;;;;;5.42;68.50;100515.09;4975456;28;20320;-67
2021/12/14 11:59:07;;;;;;;;;;;;;;;5.38;68.15;100524.25;4975566;28;19961;-66
2021/12/14 12:01:38;;;;;;;;;;;;;;;5.21;68.22;100530.41;4975480;28;19929;-66
2021/12/14 12:04:09;;;;;;;;;;;;;;;5.35;68.50;100531.72;4975149;28;20460;-66
2021/12/14 12:09:28;;;;;;;;;;;;;;;5.29;68.58;100531.53;4975116;28;20288;-66
2021/12/14 12:09:40;;;;;;;;;;;;;;;5.26;68.86;100533.94;4974831;28;19922;-67
2021/12/14 12:12:20;;;;;;;;;;;;;;;5.04;69.04;100523.91;4975745;28;19953;-67
2021/12/14 12:14:55;;;;;;;;;;;;;;;5.20;69.67;100522.78;4977430;28;19925;-67
2021/12/14 12:17:31;;;;;;;;;;;;;;;5.45;69.37;100514.34;4981613;28;19922;-67
2021/12/14 12:20:07;;;;;;;;;;;;;;;5.46;69.22;100513.50;4981444;28;19922;-67
2021/12/14 12:22:42;;;;;;;;;;;;;;;5.52;69.24;100511.19;4981350;28;19921;-66
2021/12/14 12:25:15;;;;;;;;;;;;;;;5.66;69.12;100509.97;4981662;28;19921;-67
2021/12/14 12:27:49;;;;;;;;;;;;;;;5.73;69.31;100511.88;4981677;28;20371;-67
2021/12/14 12:30:34;;;;;;;;;;;;;;;5.58;69.15;100506.31;4981394;28;19929;-66
2021/12/14 12:33:25;;;;;;;;;;;;;;;5.33;69.27;100514.75;4981328;28;20005;-65
2021/12/14 12:36:01;;;;;;;;;;;;;;;5.20;69.53;100516.03;4981661;28;19922;-66
2021/12/14 12:38:37;;;;;;;;;;;;;;;5.21;69.66;100522.81;4981631;28;20398;-66
2021/12/14 12:41:11;;;;;;;;;;;;;;;5.02;69.85;100523.00;4981561;28;20335;-66
2021/12/14 12:43:46;;;;;;;;;;;;;;;4.88;70.28;100521.66;4981194;28;20008;-67
2021/12/14 12:46:18;;;;;;;;;;;;;;;4.88;70.71;100529.22;4981145;28;19928;-66
2021/12/14 12:48:50;;;;;;;;;;;;;;;4.88;70.50;100528.38;4981302;28;19957;-66
2021/12/14 12:51:29;;;;;;;;;;;;;;;4.85;71.01;100516.47;4981303;28;20387;-66
2021/12/14 12:54:22;;;;;;;;;;;;;;;4.85;71.04;100519.00;4981115;28;19922;-66
2021/12/14 12:57:10;;;;;;;;;;;;;;;4.75;70.93;100520.34;4974571;28;19926;-66
2021/12/14 12:59:47;;;;;;;;;;;;;;;4.75;71.04;100522.03;4981327;28;20398;-66
2021/12/14 13:02:20;;;;;;;;;;;;;;;4.69;71.60;100516.75;4981060;28;19922;-66
2021/12/14 13:04:54;;;;;;;;;;;;;;;4.69;71.76;100511.69;4980950;28;19969;-66
2021/12/14 13:07:31;;;;;;;;;;;;;;;4.70;71.61;100519.31;4980850;28;19965;-67
2021/12/14 13:10:02;;;;;;;;;;;;;;;4.79;71.57;100513.75;4981051;28;19969;-66
2021/12/14 13:12:40;;;;;;;;;;;;;;;4.65;71.82;100519.97;4981024;28;19922;-65
2021/12/14 13:15:23;;;;;;;;;;;;;;;4.55;72.16;100518.78;4980926;28;19961;-66
2021/12/14 13:18:13;;;;;;;;;;;;;;;4.44;72.13;100521.72;4980843;28;19922;-67
2021/12/14 13:20:46;;;;;;;;;;;;;;;4.42;73.14;100520.78;4980874;28;19945;-66
2021/12/14 13:23:16;;;;;;;;;;;;;;;4.32;72.58;100518.75;4980831;28;19957;-66
2021/12/14 13:25:48;;;;;;;;;;;;;;;4.23;72.64;100518.38;4980136;28;19922;-66
2021/12/14 13:28:37;;;;;;;;;;;;;;;4.15;72.90;100524.81;4977541;28;19961;-66
2021/12/14 13:31:06;;;;;;;;;;;;;;;4.22;73.05;100531.81;4977732;28;19922;-66
2021/12/14 13:33:35;;;;;;;;;;;;;;;4.17;72.90;100528.25;4977666;28;20399;-66
2021/12/14 13:36:05;;;;;;;;;;;;;;;4.18;72.91;100529.97;4977587;28;19922;-66
2021/12/14 13:38:34;;;;;;;;;;;;;;;4.14;73.13;100523.09;4977807;28;20365;-66
2021/12/14 13:41:03;;;;;;;;;;;;;;;4.08;73.42;100528.75;4977694;28;20384;-65
2021/12/14 13:43:40;;;;;;;;;;;;;;;4.25;73.51;100521.84;4977277;28;19922;-65
2021/12/14 13:46:10;;;;;;;;;;;;;;;4.34;73.27;100528.09;4977579;28;20001;-66
2021/12/14 13:48:42;;;;;;;;;;;;;;;4.23;73.52;100534.41;4977599;28;19929;-66
2021/12/14 13:51:15;;;;;;;;;;;;;;;4.21;73.51;100525.03;4977834;28;20359;-67
2021/12/14 13:53:45;;;;;;;;;;;;;;;4.32;73.74;100533.91;4977398;28;19925;-66
2021/12/14 13:56:17;;;;;;;;;;;;;;;4.22;73.33;100531.81;4977942;28;19973;-66